createdAt,value
2022-11-27T00:01:15.703Z,18.58
2022-11-27T00:03:43.407Z,13.68
2022-11-27T00:06:19.065Z,13.00
2022-11-27T00:08:46.798Z,13.85
2022-11-27T00:11:16.678Z,16.27
2022-11-27T00:13:49.106Z,14.77
2022-11-27T00:16:16.205Z,13.13
2022-11-27T00:18:43.333Z,12.40
2022-11-27T00:21:22.827Z,12.63
2022-11-27T00:23:49.450Z,12.38
2022-11-27T00:26:15.965Z,11.23
2022-11-27T00:28:42.838Z,13.15
2022-11-27T00:31:15.816Z,11.82
2022-11-27T00:33:42.634Z,13.98
2022-11-27T00:36:10.238Z,11.35
2022-11-27T00:38:39.602Z,13.07
2022-11-27T00:41:15.004Z,12.27
2022-11-27T00:43:44.513Z,13.45
2022-11-27T00:46:14.379Z,12.57
2022-11-27T00:48:41.440Z,11.70
2022-11-27T00:51:10.643Z,12.00
2022-11-27T00:53:37.164Z,12.52
2022-11-27T00:56:04.484Z,16.55
2022-11-27T00:58:31.131Z,14.35
2022-11-27T01:01:03.279Z,13.13
2022-11-27T01:03:31.000Z,21.10
2022-11-27T01:06:01.991Z,12.43
2022-11-27T01:08:28.471Z,13.43
2022-11-27T01:10:57.049Z,11.05
2022-11-27T01:13:25.857Z,12.90
2022-11-27T01:16:11.483Z,14.13
2022-11-27T01:18:39.515Z,11.55
2022-11-27T01:21:08.399Z,16.55
2022-11-27T01:23:35.285Z,12.70
2022-11-27T01:26:06.714Z,13.40
2022-11-27T01:28:33.295Z,12.45
2022-11-27T01:31:07.323Z,12.27
2022-11-27T01:33:34.153Z,10.52
2022-11-27T01:36:03.515Z,13.63
2022-11-27T01:38:31.244Z,15.57
2022-11-27T01:41:08.101Z,12.48
2022-11-27T01:43:44.378Z,12.63
2022-11-27T01:46:25.875Z,18.60
2022-11-27T01:48:55.810Z,11.80
2022-11-27T01:51:23.486Z,12.43
2022-11-27T01:53:52.323Z,12.55
2022-11-27T01:56:24.050Z,13.00
2022-11-27T01:58:54.614Z,15.02
2022-11-27T02:01:24.300Z,11.43
2022-11-27T02:03:50.920Z,11.02
2022-11-27T02:06:17.247Z,11.80
2022-11-27T02:08:43.734Z,14.40
2022-11-27T02:11:20.188Z,14.68
2022-11-27T02:14:19.221Z,12.52
2022-11-27T02:16:56.219Z,11.43
2022-11-27T02:19:49.562Z,12.43
2022-11-27T02:22:39.704Z,11.48
2022-11-27T02:25:28.240Z,12.82
2022-11-27T02:28:19.970Z,12.30
2022-11-27T02:30:55.273Z,12.15
2022-11-27T02:33:22.064Z,12.57
2022-11-27T02:35:54.521Z,15.73
2022-11-27T02:38:45.830Z,15.05
2022-11-27T02:41:29.910Z,12.25
2022-11-27T02:43:58.833Z,14.27
2022-11-27T02:46:28.015Z,11.85
2022-11-27T02:49:16.712Z,11.98
2022-11-27T02:51:59.017Z,13.65
2022-11-27T02:54:28.684Z,12.70
2022-11-27T02:56:58.420Z,15.13
2022-11-27T02:59:29.691Z,13.38
2022-11-27T03:02:02.148Z,14.77
2022-11-27T03:04:34.955Z,12.07
2022-11-27T03:07:09.227Z,15.25
2022-11-27T03:09:43.020Z,12.73
2022-11-27T03:12:12.187Z,13.32
2022-11-27T03:14:58.404Z,13.50
2022-11-27T03:17:38.787Z,13.65
2022-11-27T03:20:31.509Z,12.23
2022-11-27T03:22:58.384Z,13.27
2022-11-27T03:25:24.988Z,12.52
2022-11-27T03:28:01.458Z,13.65
2022-11-27T03:30:29.412Z,14.50
2022-11-27T03:32:56.160Z,16.50
2022-11-27T03:35:26.590Z,13.40
2022-11-27T03:37:54.544Z,15.00
2022-11-27T03:40:27.331Z,13.73
2022-11-27T03:42:53.742Z,13.68
2022-11-27T03:45:29.741Z,14.70
2022-11-27T03:48:05.284Z,14.20
2022-11-27T03:51:07.528Z,13.75
2022-11-27T03:53:57.744Z,12.82
2022-11-27T03:56:41.663Z,15.00
2022-11-27T03:59:18.037Z,13.50
2022-11-27T04:01:44.905Z,12.95
2022-11-27T04:04:11.530Z,13.32
2022-11-27T04:06:38.149Z,13.25
2022-11-27T04:09:04.879Z,17.35
2022-11-27T04:11:31.312Z,13.07
2022-11-27T04:13:57.924Z,15.20
2022-11-27T04:16:24.397Z,13.75
2022-11-27T04:18:50.813Z,13.60
2022-11-27T04:21:19.430Z,14.45
2022-11-27T04:23:45.817Z,16.48
2022-11-27T04:26:12.641Z,13.70
2022-11-27T04:28:39.049Z,13.05
2022-11-27T04:31:05.608Z,13.70
2022-11-27T04:33:32.175Z,13.48
2022-11-27T04:35:58.576Z,12.60
2022-11-27T04:38:25.024Z,13.93
2022-11-27T04:40:53.045Z,12.82
2022-11-27T04:43:20.142Z,14.18
2022-11-27T04:45:46.655Z,12.52
2022-11-27T04:48:13.102Z,14.65
2022-11-27T04:50:39.521Z,13.02
2022-11-27T04:53:05.900Z,12.95
2022-11-27T04:55:32.280Z,13.82
2022-11-27T04:57:58.737Z,12.48
2022-11-27T05:00:25.216Z,12.75
2022-11-27T05:02:51.762Z,13.50
2022-11-27T05:05:18.290Z,14.43
2022-11-27T05:07:44.832Z,13.02
2022-11-27T05:10:12.148Z,12.43
2022-11-27T05:12:38.766Z,13.95
2022-11-27T05:15:05.752Z,13.10
2022-11-27T05:17:32.190Z,13.40
2022-11-27T05:19:59.446Z,14.07
2022-11-27T05:22:25.871Z,13.20
2022-11-27T05:24:52.244Z,12.80
2022-11-27T05:27:18.680Z,12.90
2022-11-27T05:29:45.435Z,13.77
2022-11-27T05:32:11.781Z,13.45
2022-11-27T05:34:38.422Z,16.83
2022-11-27T05:37:04.990Z,13.73
2022-11-27T05:39:31.355Z,15.10
2022-11-27T05:41:57.737Z,16.05
2022-11-27T05:44:24.113Z,13.73
2022-11-27T05:46:50.538Z,13.55
2022-11-27T05:49:17.006Z,13.45
2022-11-27T05:51:50.378Z,13.98
2022-11-27T05:56:43.825Z,14.18
2022-11-27T05:59:10.920Z,14.85
2022-11-27T06:01:37.487Z,12.95
2022-11-27T06:04:05.232Z,14.23
2022-11-27T06:06:31.662Z,15.07
2022-11-27T06:08:58.008Z,14.35
2022-11-27T06:11:24.512Z,15.25
2022-11-27T06:13:51.495Z,13.13
2022-11-27T06:16:20.696Z,13.15
2022-11-27T06:18:52.293Z,13.43
2022-11-27T06:21:19.671Z,13.18
2022-11-27T06:23:46.232Z,15.07
2022-11-27T06:26:14.255Z,14.00
2022-11-27T06:28:41.095Z,13.23
2022-11-27T06:31:15.990Z,13.88
2022-11-27T06:33:44.237Z,13.48
2022-11-27T06:36:10.711Z,14.20
2022-11-27T06:38:38.546Z,15.50
2022-11-27T06:41:10.219Z,14.68
2022-11-27T06:43:36.982Z,14.88
2022-11-27T06:46:05.017Z,13.75
2022-11-27T06:48:32.667Z,14.30
2022-11-27T06:51:03.551Z,18.15
2022-11-27T06:53:30.478Z,15.60
2022-11-27T06:55:57.046Z,15.77
2022-11-27T06:58:29.308Z,14.38
2022-11-27T07:00:58.787Z,14.50
2022-11-27T07:03:26.249Z,13.88
2022-11-27T07:05:52.669Z,17.77
2022-11-27T07:08:19.041Z,14.73
2022-11-27T07:10:45.402Z,13.95
2022-11-27T07:13:13.028Z,15.70
2022-11-27T07:15:39.430Z,14.77
2022-11-27T07:18:05.909Z,14.27
2022-11-27T07:20:32.847Z,14.07
2022-11-27T07:22:59.296Z,15.98
2022-11-27T07:25:25.809Z,13.57
2022-11-27T07:27:52.257Z,14.57
2022-11-27T07:30:20.987Z,14.40
2022-11-27T07:32:47.500Z,13.60
2022-11-27T07:35:13.904Z,14.40
2022-11-27T07:37:40.285Z,14.10
2022-11-27T07:40:07.301Z,14.50
2022-11-27T07:42:38.361Z,14.45
2022-11-27T07:45:06.882Z,13.75
2022-11-27T07:47:33.325Z,14.18
2022-11-27T07:50:00.500Z,13.48
2022-11-27T07:52:27.274Z,13.93
2022-11-27T07:54:54.256Z,12.45
2022-11-27T07:57:20.706Z,13.50
2022-11-27T07:59:47.839Z,13.40
2022-11-27T08:02:15.582Z,13.73
2022-11-27T08:04:43.834Z,13.35
2022-11-27T08:07:10.719Z,13.20
2022-11-27T08:09:37.921Z,13.20
2022-11-27T08:12:05.096Z,12.93
2022-11-27T08:14:31.633Z,12.93
2022-11-27T08:16:58.091Z,12.82
2022-11-27T08:19:24.794Z,12.75
2022-11-27T08:21:51.156Z,12.88
2022-11-27T08:24:17.534Z,11.50
2022-11-27T08:26:43.956Z,13.50
2022-11-27T08:29:12.117Z,12.00
2022-11-27T08:31:38.778Z,13.25
2022-11-27T08:34:05.909Z,11.57
2022-11-27T08:36:32.298Z,11.82
2022-11-27T08:38:58.694Z,12.45
2022-11-27T08:41:25.098Z,12.27
2022-11-27T08:43:51.548Z,12.20
2022-11-27T08:46:18.040Z,12.48
2022-11-27T08:48:44.463Z,12.30
2022-11-27T08:51:14.809Z,11.85
2022-11-27T08:53:44.038Z,11.95
2022-11-27T08:56:22.160Z,12.77
2022-11-27T08:58:49.366Z,11.70
2022-11-27T09:01:35.610Z,12.10
2022-11-27T09:04:02.227Z,11.68
2022-11-27T09:06:31.682Z,12.60
2022-11-27T09:09:00.108Z,13.00
2022-11-27T09:11:29.196Z,11.95
2022-11-27T09:13:55.646Z,11.30
2022-11-27T09:16:22.696Z,12.00
2022-11-27T09:18:51.547Z,12.15
2022-11-27T09:21:20.670Z,11.63
2022-11-27T09:23:47.156Z,12.50
2022-11-27T09:26:16.001Z,12.15
2022-11-27T09:28:43.457Z,12.05
2022-11-27T09:31:12.331Z,12.32
2022-11-27T09:33:40.405Z,11.35
2022-11-27T09:36:15.810Z,12.27
2022-11-27T09:38:42.613Z,11.98
2022-11-27T09:41:12.106Z,13.38
2022-11-27T09:43:49.504Z,12.82
2022-11-27T09:46:26.341Z,11.35
2022-11-27T09:48:53.822Z,11.43
2022-11-27T09:51:33.999Z,11.73
2022-11-27T09:54:07.446Z,12.40
2022-11-27T09:56:35.508Z,12.55
2022-11-27T09:59:03.705Z,14.68
2022-11-27T10:01:38.451Z,13.23
2022-11-27T10:04:09.198Z,13.80
2022-11-27T10:07:04.376Z,12.90
2022-11-27T10:10:14.468Z,12.02
2022-11-27T10:13:06.966Z,12.52
2022-11-27T10:15:41.084Z,12.13
2022-11-27T10:18:54.334Z,12.57
2022-11-27T10:21:38.113Z,11.85
2022-11-27T10:24:21.464Z,13.48
2022-11-27T10:26:49.600Z,12.90
2022-11-27T10:29:30.483Z,13.02
2022-11-27T10:32:01.659Z,12.60
2022-11-27T10:34:38.396Z,12.65
2022-11-27T10:37:16.473Z,12.02
2022-11-27T10:39:48.737Z,11.90
2022-11-27T10:42:15.277Z,11.40
2022-11-27T10:44:47.804Z,11.13
2022-11-27T10:47:15.387Z,12.65
2022-11-27T10:49:42.590Z,11.43
2022-11-27T10:52:18.381Z,11.50
2022-11-27T10:54:50.574Z,11.23
2022-11-27T10:57:40.125Z,11.15
2022-11-27T11:00:15.024Z,12.38
2022-11-27T11:02:42.123Z,11.20
2022-11-27T11:06:11.720Z,11.38
2022-11-27T11:08:19.056Z,10.50
2022-11-27T11:10:57.489Z,11.20
2022-11-27T11:13:28.676Z,12.13
2022-11-27T11:16:05.351Z,10.65
2022-11-27T11:18:35.541Z,11.60
2022-11-27T11:21:07.591Z,10.13
2022-11-27T11:23:36.653Z,10.57
2022-11-27T11:26:08.332Z,10.07
2022-11-27T11:28:47.185Z,8.23
2022-11-27T11:31:19.577Z,9.20
2022-11-27T11:33:57.306Z,8.35
2022-11-27T11:36:23.790Z,8.25
2022-11-27T11:38:51.443Z,10.63
2022-11-27T11:41:20.883Z,8.98
2022-11-27T11:43:58.645Z,8.65
2022-11-27T11:46:31.907Z,11.18
2022-11-27T11:49:00.275Z,10.00
2022-11-27T11:51:58.528Z,10.50
2022-11-27T11:54:34.080Z,8.90
2022-11-27T11:57:03.559Z,9.35
2022-11-27T11:59:46.311Z,8.70
2022-11-27T12:02:26.321Z,8.07
2022-11-27T12:05:11.465Z,8.93
2022-11-27T12:07:55.570Z,9.38
2022-11-27T12:10:25.760Z,9.15
2022-11-27T12:13:07.574Z,8.65
2022-11-27T12:15:52.506Z,8.48
2022-11-27T12:18:52.019Z,9.20
2022-11-27T12:21:28.886Z,8.13
2022-11-27T12:24:17.301Z,8.68
2022-11-27T12:27:03.627Z,8.05
2022-11-27T12:29:53.337Z,8.25
2022-11-27T12:32:34.931Z,10.80
2022-11-27T12:35:27.613Z,9.27
2022-11-27T12:38:15.351Z,8.82
2022-11-27T12:41:02.997Z,9.68
2022-11-27T12:43:39.706Z,10.07
2022-11-27T12:46:37.482Z,9.82
2022-11-27T12:49:16.283Z,9.50
2022-11-27T12:51:54.588Z,8.90
2022-11-27T12:54:44.927Z,9.75
2022-11-27T12:57:23.210Z,8.38
2022-11-27T12:59:56.694Z,9.18
2022-11-27T13:03:09.859Z,9.80
2022-11-27T13:05:46.519Z,8.88
2022-11-27T13:08:49.639Z,10.05
2022-11-27T13:11:24.152Z,9.40
2022-11-27T13:14:05.759Z,10.05
2022-11-27T13:16:38.312Z,10.20
2022-11-27T13:19:28.602Z,9.73
2022-11-27T13:21:57.695Z,10.98
2022-11-27T13:24:26.480Z,9.68
2022-11-27T13:27:04.622Z,10.70
2022-11-27T13:29:39.293Z,10.27
2022-11-27T13:32:07.983Z,9.77
2022-11-27T13:34:43.757Z,9.23
2022-11-27T13:37:26.789Z,10.73
2022-11-27T13:40:19.471Z,9.93
2022-11-27T13:42:50.772Z,10.48
2022-11-27T13:45:25.900Z,10.38
2022-11-27T13:47:52.782Z,10.98
2022-11-27T13:50:23.123Z,10.75
2022-11-27T13:53:00.465Z,12.70
2022-11-27T13:55:39.069Z,10.90
2022-11-27T13:58:06.786Z,11.68
2022-11-27T14:00:39.776Z,10.88
2022-11-27T14:03:10.496Z,12.80
2022-11-27T14:05:39.257Z,11.43
2022-11-27T14:08:17.371Z,11.18
2022-11-27T14:10:57.497Z,11.38
2022-11-27T14:13:35.045Z,11.20
2022-11-27T14:16:03.738Z,12.15
2022-11-27T14:18:30.990Z,11.20
2022-11-27T14:21:03.107Z,12.13
2022-11-27T14:23:35.720Z,11.85
2022-11-27T14:26:20.440Z,12.52
2022-11-27T14:28:51.763Z,12.57
2022-11-27T14:31:33.027Z,12.60
2022-11-27T14:34:23.169Z,11.95
2022-11-27T14:36:51.857Z,12.75
2022-11-27T14:39:27.992Z,13.80
2022-11-27T14:42:10.498Z,11.20
2022-11-27T14:44:36.822Z,15.43
2022-11-27T14:47:06.566Z,11.85
2022-11-27T14:49:33.743Z,13.88
2022-11-27T14:52:04.771Z,12.48
2022-11-27T14:54:39.100Z,12.57
2022-11-27T14:59:33.092Z,11.07
2022-11-27T15:01:59.421Z,12.90
2022-11-27T15:04:29.019Z,12.27
2022-11-27T15:06:57.314Z,12.45
2022-11-27T15:09:32.199Z,13.07
2022-11-27T15:12:18.565Z,13.00
2022-11-27T15:14:49.187Z,12.00
2022-11-27T15:17:25.294Z,12.48
2022-11-27T15:19:54.574Z,11.57
2022-11-27T15:22:21.704Z,12.43
2022-11-27T15:24:59.287Z,12.38
2022-11-27T15:27:26.018Z,12.88
2022-11-27T15:29:52.318Z,12.95
2022-11-27T15:32:24.590Z,12.60
2022-11-27T15:34:52.249Z,12.48
2022-11-27T15:37:23.531Z,12.10
2022-11-27T15:39:54.801Z,11.68
2022-11-27T15:42:21.886Z,11.52
2022-11-27T15:44:52.512Z,11.23
2022-11-27T15:47:35.131Z,11.80
2022-11-27T15:50:02.099Z,11.13
2022-11-27T15:52:28.950Z,10.45
2022-11-27T15:54:58.099Z,11.52
2022-11-27T15:57:26.140Z,10.68
2022-11-27T15:59:52.635Z,11.18
2022-11-27T16:02:19.070Z,10.07
2022-11-27T16:04:45.517Z,9.60
2022-11-27T16:07:11.930Z,10.80
2022-11-27T16:09:39.587Z,10.75
2022-11-27T16:12:06.530Z,11.88
2022-11-27T16:14:32.989Z,10.10
2022-11-27T16:17:00.419Z,11.05
2022-11-27T16:19:27.437Z,11.27
2022-11-27T16:21:53.762Z,10.48
2022-11-27T16:24:20.124Z,10.68
2022-11-27T16:26:46.441Z,11.95
2022-11-27T16:29:12.985Z,12.38
2022-11-27T16:31:39.457Z,10.52
2022-11-27T16:34:06.510Z,10.13
2022-11-27T16:36:32.838Z,10.25
2022-11-27T16:38:59.191Z,10.88
2022-11-27T16:41:26.035Z,10.50
2022-11-27T16:43:55.560Z,10.35
2022-11-27T16:46:28.246Z,10.68
2022-11-27T16:48:56.121Z,10.25
2022-11-27T16:51:25.525Z,12.80
2022-11-27T16:53:54.218Z,11.23
2022-11-27T16:56:23.872Z,11.50
2022-11-27T16:58:51.742Z,10.45
2022-11-27T17:01:21.810Z,10.52
2022-11-27T17:03:48.830Z,10.75
2022-11-27T17:06:20.961Z,10.98
2022-11-27T17:08:47.397Z,11.68
2022-11-27T17:11:25.865Z,11.40
2022-11-27T17:13:55.847Z,10.98
2022-11-27T17:16:22.351Z,11.38
2022-11-27T17:18:48.721Z,11.88
2022-11-27T17:21:27.377Z,11.00
2022-11-27T17:23:58.754Z,10.73
2022-11-27T17:26:27.479Z,9.93
2022-11-27T17:28:56.158Z,11.07
2022-11-27T17:31:32.703Z,12.07
2022-11-27T17:33:59.910Z,11.93
2022-11-27T17:36:28.110Z,11.43
2022-11-27T17:38:56.055Z,11.65
2022-11-27T17:41:22.794Z,12.32
2022-11-27T17:43:49.386Z,13.65
2022-11-27T17:46:22.228Z,12.18
2022-11-27T17:48:49.470Z,13.57
2022-11-27T17:51:16.341Z,13.25
2022-11-27T17:53:42.691Z,12.15
2022-11-27T17:56:14.616Z,11.50
2022-11-27T17:58:41.481Z,13.07
2022-11-27T18:01:16.293Z,12.63
2022-11-27T18:03:42.638Z,12.88
2022-11-27T18:06:09.509Z,13.32
2022-11-27T18:08:36.252Z,11.95
2022-11-27T18:11:08.030Z,13.32
2022-11-27T18:13:34.457Z,13.43
2022-11-27T18:16:15.446Z,12.57
2022-11-27T18:18:43.478Z,12.80
2022-11-27T18:21:18.064Z,13.15
2022-11-27T18:24:14.475Z,12.07
2022-11-27T18:26:52.407Z,12.88
2022-11-27T18:29:17.696Z,12.13
2022-11-27T18:31:44.147Z,13.07
2022-11-27T18:34:11.145Z,16.13
2022-11-27T18:36:37.537Z,14.85
2022-11-27T18:39:04.918Z,15.98
2022-11-27T18:41:31.233Z,14.50
2022-11-27T18:43:58.932Z,15.27
2022-11-27T18:46:25.417Z,14.27
2022-11-27T18:48:51.862Z,14.75
2022-11-27T18:51:24.122Z,14.43
2022-11-27T18:53:51.419Z,14.00
2022-11-27T18:56:20.828Z,14.40
2022-11-27T18:58:48.386Z,14.57
2022-11-27T19:01:26.275Z,13.55
2022-11-27T19:03:53.528Z,14.13
2022-11-27T19:06:22.241Z,13.68
2022-11-27T19:08:48.658Z,15.13
2022-11-27T19:11:18.986Z,13.73
2022-11-27T19:13:46.252Z,16.02
2022-11-27T19:16:22.064Z,14.80
2022-11-27T19:18:48.705Z,14.30
2022-11-27T19:21:18.505Z,13.70
2022-11-27T19:23:45.178Z,14.25
2022-11-27T19:26:38.010Z,13.98
2022-11-27T19:29:08.378Z,14.50
2022-11-27T19:31:37.851Z,14.32
2022-11-27T19:34:05.749Z,14.88
2022-11-27T19:36:33.112Z,14.90
2022-11-27T19:39:13.864Z,15.05
2022-11-27T19:41:41.443Z,14.38
2022-11-27T19:44:07.903Z,14.63
2022-11-27T19:46:36.552Z,15.15
2022-11-27T19:49:12.692Z,14.80
2022-11-27T19:51:41.008Z,14.77
2022-11-27T19:54:10.249Z,14.50
2022-11-27T19:56:39.517Z,14.98
2022-11-27T19:59:06.932Z,14.48
2022-11-27T20:01:33.449Z,15.10
2022-11-27T20:03:59.962Z,15.00
2022-11-27T20:06:26.421Z,14.13
2022-11-27T20:08:54.600Z,15.45
2022-11-27T20:11:23.044Z,14.60
2022-11-27T20:13:50.361Z,14.65
2022-11-27T20:16:19.291Z,14.63
2022-11-27T20:18:46.306Z,15.20
2022-11-27T20:21:15.953Z,14.38
2022-11-27T20:23:43.803Z,15.32
2022-11-27T20:26:13.164Z,14.80
2022-11-27T20:28:42.850Z,14.80
2022-11-27T20:31:24.165Z,15.13
2022-11-27T20:33:52.541Z,14.65
2022-11-27T20:36:21.165Z,15.23
2022-11-27T20:38:47.778Z,14.38
2022-11-27T20:41:17.776Z,14.65
2022-11-27T20:43:44.943Z,15.43
2022-11-27T20:46:13.254Z,14.40
2022-11-27T20:48:39.858Z,15.55
2022-11-27T20:51:07.989Z,14.57
2022-11-27T20:53:35.033Z,14.27
2022-11-27T20:56:06.217Z,13.82
2022-11-27T20:58:34.544Z,14.73
2022-11-27T21:01:01.225Z,14.07
2022-11-27T21:03:29.093Z,15.23
2022-11-27T21:05:55.877Z,15.13
2022-11-27T21:08:22.898Z,14.25
2022-11-27T21:10:50.503Z,14.15
2022-11-27T21:13:17.199Z,14.68
2022-11-27T21:15:47.618Z,14.40
2022-11-27T21:18:14.280Z,15.50
2022-11-27T21:20:41.589Z,15.35
2022-11-27T21:23:08.138Z,14.65
2022-11-27T21:25:34.515Z,13.80
2022-11-27T21:28:00.878Z,14.02
2022-11-27T21:30:27.268Z,14.23
2022-11-27T21:32:53.616Z,14.23
2022-11-27T21:35:19.984Z,14.50
2022-11-27T21:37:46.308Z,14.50
2022-11-27T21:40:13.040Z,15.02
2022-11-27T21:42:44.339Z,16.10
2022-11-27T21:45:11.251Z,14.95
2022-11-27T21:47:37.611Z,15.75
2022-11-27T21:50:04.937Z,15.45
2022-11-27T21:52:31.239Z,14.77
2022-11-27T21:54:57.630Z,15.20
2022-11-27T21:57:24.033Z,15.88
2022-11-27T21:59:50.356Z,16.10
2022-11-27T22:02:16.716Z,20.38
2022-11-27T22:04:43.692Z,21.30
2022-11-27T22:07:10.338Z,22.17
2022-11-27T22:09:36.648Z,20.77
2022-11-27T22:12:03.046Z,18.95
2022-11-27T22:14:29.415Z,17.65
2022-11-27T22:16:56.883Z,19.55
2022-11-27T22:19:23.433Z,17.80
2022-11-27T22:21:49.786Z,19.27
2022-11-27T22:24:19.245Z,18.25
2022-11-27T22:26:46.890Z,19.58
2022-11-27T22:29:13.187Z,17.50
2022-11-27T22:31:39.576Z,18.95
2022-11-27T22:34:05.947Z,18.75
2022-11-27T22:36:34.138Z,18.85
2022-11-27T22:39:03.540Z,17.50
2022-11-27T22:41:31.250Z,17.80
2022-11-27T22:44:00.046Z,18.88
2022-11-27T22:46:32.173Z,19.50
2022-11-27T22:49:00.489Z,17.95
2022-11-27T22:51:28.819Z,17.98
2022-11-27T22:53:55.521Z,19.15
2022-11-27T22:56:21.880Z,19.60
2022-11-27T22:58:48.339Z,21.13
2022-11-27T23:01:23.332Z,21.13
2022-11-27T23:03:50.025Z,20.45
2022-11-27T23:06:18.063Z,24.25
2022-11-27T23:08:46.431Z,24.73
2022-11-27T23:11:39.338Z,27.13
2022-11-27T23:14:05.763Z,23.30
2022-11-27T23:16:33.001Z,25.70
2022-11-27T23:18:59.323Z,25.60
2022-11-27T23:21:27.215Z,27.80
2022-11-27T23:23:53.596Z,30.25
2022-11-27T23:26:22.873Z,31.33
2022-11-27T23:28:51.955Z,32.80
2022-11-27T23:31:32.058Z,33.13
2022-11-27T23:34:01.674Z,32.80
2022-11-27T23:36:29.644Z,35.33
2022-11-27T23:38:56.551Z,36.45
2022-11-27T23:41:24.878Z,35.05
2022-11-27T23:43:53.165Z,32.38
2022-11-27T23:46:22.172Z,32.78
2022-11-27T23:48:48.988Z,32.90
2022-11-27T23:51:20.793Z,32.20
2022-11-27T23:53:47.870Z,36.65
2022-11-27T23:56:17.772Z,32.50
2022-11-27T23:58:47.278Z,32.08
